createdAt,value
2022-12-03T00:00:42.958Z,53.98
2022-12-03T00:01:42.936Z,50.37
2022-12-03T00:02:43.153Z,56.71
2022-12-03T00:03:43.161Z,49.22
2022-12-03T00:04:42.911Z,49.55
2022-12-03T00:05:48.805Z,51.96
2022-12-03T00:06:43.909Z,53.89
2022-12-03T00:07:42.920Z,51.61
2022-12-03T00:08:42.897Z,52.04
2022-12-03T00:09:42.877Z,51.70
2022-12-03T00:10:42.875Z,53.57
2022-12-03T00:11:43.015Z,51.91
2022-12-03T00:12:42.857Z,53.50
2022-12-03T00:13:42.857Z,54.28
2022-12-03T00:14:44.821Z,53.23
2022-12-03T00:15:42.926Z,53.77
2022-12-03T00:16:42.837Z,53.20
2022-12-03T00:17:42.807Z,54.20
2022-12-03T00:18:42.838Z,53.33
2022-12-03T00:19:42.804Z,53.46
2022-12-03T00:20:42.808Z,51.39
2022-12-03T00:21:42.800Z,48.00
2022-12-03T00:22:42.781Z,54.78
2022-12-03T00:23:42.783Z,58.58
2022-12-03T00:24:42.790Z,54.28
2022-12-03T00:25:42.756Z,52.15
2022-12-03T00:26:42.768Z,51.19
2022-12-03T00:27:42.736Z,49.27
2022-12-03T00:28:42.769Z,48.75
2022-12-03T00:29:42.740Z,52.73
2022-12-03T00:30:42.826Z,59.03
2022-12-03T00:31:42.831Z,51.02
2022-12-03T00:32:42.732Z,47.98
2022-12-03T00:33:42.717Z,47.44
2022-12-03T00:34:42.707Z,48.17
2022-12-03T00:35:42.697Z,47.04
2022-12-03T00:36:42.781Z,49.66
2022-12-03T00:37:42.679Z,54.04
2022-12-03T00:38:42.693Z,48.19
2022-12-03T00:39:42.663Z,47.04
2022-12-03T00:40:42.710Z,47.00
2022-12-03T00:41:42.664Z,46.17
2022-12-03T00:42:42.649Z,47.01
2022-12-03T00:43:42.646Z,46.36
2022-12-03T00:44:42.656Z,45.61
2022-12-03T00:45:42.641Z,47.14
2022-12-03T00:46:42.733Z,47.70
2022-12-03T00:47:42.659Z,48.03
2022-12-03T00:48:42.628Z,47.51
2022-12-03T00:49:42.602Z,49.70
2022-12-03T00:50:42.601Z,50.41
2022-12-03T00:51:42.629Z,45.45
2022-12-03T00:52:42.582Z,51.90
2022-12-03T00:53:42.587Z,42.78
2022-12-03T00:54:42.562Z,41.20
2022-12-03T00:55:42.569Z,39.58
2022-12-03T00:56:42.548Z,39.03
2022-12-03T00:57:42.546Z,39.21
2022-12-03T00:58:42.538Z,38.83
2022-12-03T00:59:42.525Z,38.89
2022-12-03T01:00:42.540Z,38.83
2022-12-03T01:01:42.646Z,38.78
2022-12-03T01:02:42.495Z,38.92
2022-12-03T01:03:42.524Z,43.11
2022-12-03T01:04:42.581Z,47.20
2022-12-03T01:05:42.511Z,40.69
2022-12-03T01:06:42.472Z,40.06
2022-12-03T01:07:42.552Z,39.24
2022-12-03T01:08:42.453Z,39.03
2022-12-03T01:09:42.456Z,39.50
2022-12-03T01:10:42.452Z,40.15
2022-12-03T01:11:42.452Z,40.56
2022-12-03T01:12:42.441Z,39.71
2022-12-03T01:13:42.445Z,39.38
2022-12-03T01:14:42.411Z,39.62
2022-12-03T01:15:42.509Z,39.67
2022-12-03T01:16:42.406Z,40.88
2022-12-03T01:17:42.409Z,40.18
2022-12-03T01:18:42.415Z,41.06
2022-12-03T01:19:48.063Z,39.86
2022-12-03T01:20:43.394Z,41.27
2022-12-03T01:21:42.381Z,40.57
2022-12-03T01:22:42.419Z,41.11
2022-12-03T01:23:42.365Z,41.65
2022-12-03T01:24:42.370Z,41.52
2022-12-03T01:25:42.394Z,42.94
2022-12-03T01:26:42.352Z,41.16
2022-12-03T01:27:42.347Z,40.67
2022-12-03T01:28:42.328Z,42.16
2022-12-03T01:29:42.322Z,42.30
2022-12-03T01:30:42.317Z,40.74
2022-12-03T01:31:42.372Z,42.01
2022-12-03T01:32:42.313Z,41.31
2022-12-03T01:33:42.284Z,42.20
2022-12-03T01:34:42.285Z,41.26
2022-12-03T01:35:42.309Z,40.15
2022-12-03T01:36:42.292Z,41.21
2022-12-03T01:37:42.248Z,41.32
2022-12-03T01:38:42.266Z,43.11
2022-12-03T01:39:42.246Z,41.99
2022-12-03T01:40:42.261Z,40.59
2022-12-03T01:41:42.247Z,52.67
2022-12-03T01:42:42.237Z,41.04
2022-12-03T01:43:42.224Z,40.11
2022-12-03T01:44:42.229Z,38.94
2022-12-03T01:45:42.207Z,40.23
2022-12-03T01:46:42.317Z,39.15
2022-12-03T01:47:42.181Z,51.93
2022-12-03T01:48:42.191Z,40.93
2022-12-03T01:49:42.186Z,40.85
2022-12-03T01:50:42.206Z,39.53
2022-12-03T01:51:42.194Z,41.58
2022-12-03T01:52:42.170Z,43.70
2022-12-03T01:53:42.140Z,43.03
2022-12-03T01:54:42.350Z,49.12
2022-12-03T01:55:45.623Z,40.22
2022-12-03T01:56:43.171Z,39.63
2022-12-03T01:57:42.137Z,40.72
2022-12-03T01:58:42.123Z,41.03
2022-12-03T01:59:42.131Z,42.30
2022-12-03T02:00:42.124Z,41.66
2022-12-03T02:01:42.165Z,40.80
2022-12-03T02:02:42.102Z,40.45
2022-12-03T02:03:42.151Z,41.17
2022-12-03T02:04:42.094Z,40.39
2022-12-03T02:05:42.089Z,40.56
2022-12-03T02:06:42.077Z,42.02
2022-12-03T02:07:42.162Z,41.11
2022-12-03T02:08:42.049Z,55.18
2022-12-03T02:09:42.044Z,41.28
2022-12-03T02:10:42.038Z,43.30
2022-12-03T02:11:42.092Z,50.17
2022-12-03T02:12:42.034Z,43.17
2022-12-03T02:13:42.012Z,42.29
2022-12-03T02:14:42.023Z,40.40
2022-12-03T02:15:42.066Z,40.86
2022-12-03T02:16:42.089Z,42.25
2022-12-03T02:17:41.992Z,40.03
2022-12-03T02:18:41.980Z,49.73
2022-12-03T02:19:41.977Z,47.82
2022-12-03T02:20:42.000Z,39.34
2022-12-03T02:21:41.961Z,39.47
2022-12-03T02:22:41.954Z,39.18
2022-12-03T02:23:41.977Z,39.06
2022-12-03T02:24:41.955Z,41.22
2022-12-03T02:25:41.928Z,47.52
2022-12-03T02:26:41.942Z,38.37
2022-12-03T02:27:41.915Z,38.21
2022-12-03T02:28:41.913Z,38.07
2022-12-03T02:29:41.928Z,38.92
2022-12-03T02:30:41.908Z,38.94
2022-12-03T02:31:41.980Z,46.80
2022-12-03T02:32:41.901Z,43.87
2022-12-03T02:33:41.867Z,38.75
2022-12-03T02:34:41.887Z,37.91
2022-12-03T02:35:41.861Z,38.36
2022-12-03T02:36:41.863Z,40.10
2022-12-03T02:37:41.855Z,39.95
2022-12-03T02:38:41.860Z,39.58
2022-12-03T02:39:41.860Z,39.98
2022-12-03T02:40:41.836Z,40.57
2022-12-03T02:41:41.828Z,39.19
2022-12-03T02:42:41.820Z,39.65
2022-12-03T02:43:41.828Z,39.64
2022-12-03T02:44:41.823Z,39.71
2022-12-03T02:45:41.801Z,40.37
2022-12-03T02:46:41.864Z,50.82
2022-12-03T02:47:41.776Z,43.18
2022-12-03T02:48:41.782Z,45.56
2022-12-03T02:49:41.777Z,40.45
2022-12-03T02:50:41.793Z,38.85
2022-12-03T02:51:41.767Z,39.30
2022-12-03T02:52:41.767Z,39.30
2022-12-03T02:53:41.737Z,40.26
2022-12-03T02:54:41.757Z,39.22
2022-12-03T02:55:41.751Z,38.89
2022-12-03T02:56:41.723Z,39.40
2022-12-03T02:57:41.747Z,40.68
2022-12-03T02:58:41.724Z,40.32
2022-12-03T02:59:41.704Z,39.72
2022-12-03T03:00:41.763Z,38.52
2022-12-03T03:01:41.761Z,39.86
2022-12-03T03:02:41.811Z,40.89
2022-12-03T03:03:41.665Z,41.02
2022-12-03T03:04:41.673Z,41.52
2022-12-03T03:05:41.692Z,40.14
2022-12-03T03:06:41.661Z,40.16
2022-12-03T03:07:41.704Z,41.49
2022-12-03T03:08:41.665Z,40.16
2022-12-03T03:09:41.623Z,40.61
2022-12-03T03:10:41.624Z,40.69
2022-12-03T03:11:41.673Z,39.50
2022-12-03T03:12:41.632Z,41.47
2022-12-03T03:13:41.596Z,42.01
2022-12-03T03:14:41.613Z,41.92
2022-12-03T03:15:41.584Z,46.22
2022-12-03T03:16:41.768Z,41.04
2022-12-03T03:17:41.585Z,40.52
2022-12-03T03:18:41.770Z,41.06
2022-12-03T03:19:41.571Z,41.43
2022-12-03T03:20:41.592Z,40.36
2022-12-03T03:21:41.542Z,41.07
2022-12-03T03:22:41.599Z,41.43
2022-12-03T03:23:41.529Z,41.35
2022-12-03T03:24:41.533Z,55.06
2022-12-03T03:25:41.534Z,41.88
2022-12-03T03:26:41.530Z,40.24
2022-12-03T03:27:41.557Z,40.09
2022-12-03T03:28:41.516Z,41.04
2022-12-03T03:29:41.499Z,40.57
2022-12-03T03:30:41.494Z,39.95
2022-12-03T03:31:41.613Z,45.04
2022-12-03T03:32:41.485Z,49.45
2022-12-03T03:33:41.532Z,39.92
2022-12-03T03:34:41.474Z,40.18
2022-12-03T03:35:41.444Z,41.65
2022-12-03T03:36:41.447Z,39.68
2022-12-03T03:37:41.439Z,39.98
2022-12-03T03:38:41.462Z,40.09
2022-12-03T03:39:41.432Z,55.86
2022-12-03T03:40:41.438Z,41.10
2022-12-03T03:41:41.413Z,44.66
2022-12-03T03:42:41.440Z,41.41
2022-12-03T03:43:41.455Z,39.73
2022-12-03T03:44:41.406Z,41.11
2022-12-03T03:45:41.496Z,40.38
2022-12-03T03:46:41.391Z,55.07
2022-12-03T03:47:41.361Z,41.44
2022-12-03T03:48:41.370Z,41.89
2022-12-03T03:49:41.362Z,41.01
2022-12-03T03:50:41.354Z,41.60
2022-12-03T03:51:41.354Z,43.10
2022-12-03T03:52:41.352Z,45.33
2022-12-03T03:53:41.344Z,40.50
2022-12-03T03:54:41.335Z,41.96
2022-12-03T03:55:41.310Z,40.71
2022-12-03T03:56:41.321Z,39.58
2022-12-03T03:57:41.307Z,38.67
2022-12-03T03:58:41.301Z,38.06
2022-12-03T03:59:41.327Z,38.95
2022-12-03T04:00:41.298Z,39.51
2022-12-03T04:01:41.300Z,40.89
2022-12-03T04:02:41.275Z,40.87
2022-12-03T04:03:41.296Z,41.40
2022-12-03T04:04:41.317Z,41.34
2022-12-03T04:05:41.281Z,42.42
2022-12-03T04:06:41.241Z,45.09
2022-12-03T04:07:41.290Z,42.63
2022-12-03T04:08:41.234Z,40.79
2022-12-03T04:09:41.301Z,40.20
2022-12-03T04:10:41.222Z,40.62
2022-12-03T04:11:41.191Z,39.98
2022-12-03T04:12:41.196Z,39.30
2022-12-03T04:13:41.218Z,39.92
2022-12-03T04:14:41.224Z,39.89
2022-12-03T04:15:41.186Z,38.59
2022-12-03T04:16:41.195Z,39.30
2022-12-03T04:17:41.160Z,40.36
2022-12-03T04:18:41.159Z,39.27
2022-12-03T04:19:41.161Z,39.70
2022-12-03T04:20:41.137Z,38.91
2022-12-03T04:21:41.148Z,38.75
2022-12-03T04:22:41.134Z,39.75
2022-12-03T04:23:41.149Z,39.71
2022-12-03T04:24:41.149Z,39.16
2022-12-03T04:25:41.120Z,39.08
2022-12-03T04:26:41.098Z,40.95
2022-12-03T04:27:41.312Z,40.37
2022-12-03T04:28:41.069Z,39.59
2022-12-03T04:29:41.089Z,47.09
2022-12-03T04:30:41.114Z,39.57
2022-12-03T04:31:41.096Z,39.37
2022-12-03T04:32:41.286Z,39.89
2022-12-03T04:33:41.059Z,40.62
2022-12-03T04:34:41.031Z,40.36
2022-12-03T04:35:41.075Z,40.32
2022-12-03T04:36:41.060Z,40.26
2022-12-03T04:37:41.502Z,39.60
2022-12-03T04:38:41.014Z,40.63
2022-12-03T04:39:41.018Z,54.14
2022-12-03T04:40:40.982Z,40.22
2022-12-03T04:41:41.000Z,41.74
2022-12-03T04:42:40.972Z,41.19
2022-12-03T04:43:40.976Z,41.23
2022-12-03T04:44:40.969Z,41.05
2022-12-03T04:45:41.082Z,41.61
2022-12-03T04:46:40.940Z,42.23
2022-12-03T04:47:40.965Z,43.09
2022-12-03T04:48:40.953Z,43.92
2022-12-03T04:49:40.930Z,42.19
2022-12-03T04:50:40.952Z,42.56
2022-12-03T04:51:40.942Z,40.98
2022-12-03T04:52:40.904Z,42.06
2022-12-03T04:53:46.041Z,43.36
2022-12-03T04:54:41.885Z,41.96
2022-12-03T04:55:40.902Z,41.54
2022-12-03T04:56:40.902Z,40.86
2022-12-03T04:57:40.873Z,41.97
2022-12-03T04:58:40.864Z,42.27
2022-12-03T04:59:40.871Z,42.07
2022-12-03T05:00:40.844Z,42.77
2022-12-03T05:01:40.951Z,41.79
2022-12-03T05:02:40.912Z,45.38
2022-12-03T05:03:40.848Z,41.72
2022-12-03T05:04:40.847Z,41.72
2022-12-03T05:05:40.823Z,39.72
2022-12-03T05:06:40.824Z,39.66
2022-12-03T05:07:40.876Z,39.44
2022-12-03T05:08:40.795Z,40.02
2022-12-03T05:09:40.798Z,39.49
2022-12-03T05:10:40.776Z,39.63
2022-12-03T05:11:40.786Z,40.14
2022-12-03T05:12:40.781Z,39.84
2022-12-03T05:13:42.590Z,39.77
2022-12-03T05:14:40.774Z,40.29
2022-12-03T05:15:40.749Z,39.93
2022-12-03T05:16:40.833Z,41.64
2022-12-03T05:17:40.720Z,41.09
2022-12-03T05:18:40.747Z,41.53
2022-12-03T05:19:40.763Z,51.57
2022-12-03T05:20:40.704Z,43.21
2022-12-03T05:21:40.699Z,44.34
2022-12-03T05:22:40.691Z,42.85
2022-12-03T05:23:40.684Z,40.84
2022-12-03T05:24:40.698Z,40.15
2022-12-03T05:25:40.665Z,40.86
2022-12-03T05:26:40.678Z,41.54
2022-12-03T05:27:40.660Z,41.56
2022-12-03T05:28:40.660Z,41.19
2022-12-03T05:29:40.652Z,45.08
2022-12-03T05:30:40.732Z,43.20
2022-12-03T05:31:40.660Z,43.88
2022-12-03T05:32:40.640Z,44.62
2022-12-03T05:33:44.269Z,44.93
2022-12-03T05:34:40.619Z,45.38
2022-12-03T05:35:40.623Z,44.82
2022-12-03T05:36:40.609Z,48.55
2022-12-03T05:37:40.589Z,45.49
2022-12-03T05:38:40.601Z,43.97
2022-12-03T05:39:40.580Z,44.73
2022-12-03T05:40:40.775Z,42.57
2022-12-03T05:41:40.574Z,43.42
2022-12-03T05:42:40.559Z,49.22
2022-12-03T05:43:40.545Z,46.15
2022-12-03T05:44:40.560Z,47.16
2022-12-03T05:45:40.671Z,47.34
2022-12-03T05:46:40.604Z,45.72
2022-12-03T05:47:40.560Z,49.15
2022-12-03T05:48:40.560Z,47.96
2022-12-03T05:49:40.512Z,55.76
2022-12-03T05:50:40.520Z,48.61
2022-12-03T05:51:40.530Z,42.34
2022-12-03T05:52:40.520Z,42.77
2022-12-03T05:53:40.487Z,41.68
2022-12-03T05:54:40.494Z,42.20
2022-12-03T05:55:40.499Z,43.68
2022-12-03T05:56:40.479Z,44.06
2022-12-03T05:57:40.475Z,41.67
2022-12-03T05:58:40.463Z,41.69
2022-12-03T05:59:40.449Z,41.29
2022-12-03T06:00:42.870Z,43.08
2022-12-03T06:01:40.436Z,43.77
2022-12-03T06:02:40.796Z,44.25
2022-12-03T06:03:40.588Z,41.84
2022-12-03T06:04:40.421Z,41.34
2022-12-03T06:05:40.391Z,40.93
2022-12-03T06:06:40.416Z,41.63
2022-12-03T06:07:40.551Z,40.99
2022-12-03T06:08:40.391Z,41.94
2022-12-03T06:09:40.401Z,41.49
2022-12-03T06:10:40.460Z,46.80
2022-12-03T06:11:40.419Z,47.32
2022-12-03T06:12:40.378Z,45.91
2022-12-03T06:13:40.346Z,44.44
2022-12-03T06:14:40.356Z,46.41
2022-12-03T06:15:43.789Z,48.70
2022-12-03T06:16:40.374Z,50.27
2022-12-03T06:17:40.339Z,50.62
2022-12-03T06:18:40.309Z,51.90
2022-12-03T06:19:40.300Z,51.68
2022-12-03T06:20:40.418Z,52.85
2022-12-03T06:21:40.303Z,51.16
2022-12-03T06:22:40.285Z,49.44
2022-12-03T06:23:40.296Z,48.63
2022-12-03T06:24:40.287Z,50.16
2022-12-03T06:25:40.254Z,51.64
2022-12-03T06:26:40.269Z,51.68
2022-12-03T06:27:40.270Z,51.05
2022-12-03T06:28:40.243Z,50.99
2022-12-03T06:29:40.494Z,49.46
2022-12-03T06:30:40.234Z,48.55
2022-12-03T06:31:40.274Z,50.21
2022-12-03T06:32:40.344Z,47.76
2022-12-03T06:33:40.247Z,48.16
2022-12-03T06:34:40.211Z,48.96
2022-12-03T06:35:40.196Z,49.67
2022-12-03T06:36:40.190Z,49.34
2022-12-03T06:37:40.175Z,49.76
2022-12-03T06:38:40.185Z,47.14
2022-12-03T06:39:40.206Z,48.67
2022-12-03T06:40:40.161Z,47.11
2022-12-03T06:41:40.152Z,48.82
2022-12-03T06:42:40.151Z,48.52
2022-12-03T06:43:40.128Z,50.43
2022-12-03T06:44:40.143Z,48.59
2022-12-03T06:45:46.158Z,49.49
2022-12-03T06:46:40.170Z,47.35
2022-12-03T06:47:40.115Z,49.20
2022-12-03T06:48:40.099Z,48.36
2022-12-03T06:49:40.106Z,47.42
2022-12-03T06:50:40.100Z,48.55
2022-12-03T06:51:40.076Z,55.78
2022-12-03T06:52:40.095Z,48.98
2022-12-03T06:53:40.089Z,50.28
2022-12-03T06:54:40.056Z,51.14
2022-12-03T06:55:40.135Z,51.30
2022-12-03T06:56:45.192Z,48.02
2022-12-03T06:57:41.070Z,50.11
2022-12-03T06:58:40.051Z,52.05
2022-12-03T06:59:40.029Z,51.95
2022-12-03T07:00:40.014Z,51.68
2022-12-03T07:01:40.155Z,50.47
2022-12-03T07:02:40.080Z,51.15
2022-12-03T07:03:39.984Z,52.05
2022-12-03T07:04:44.782Z,53.09
2022-12-03T07:05:40.972Z,52.20
2022-12-03T07:06:39.988Z,61.49
2022-12-03T07:07:40.056Z,54.41
2022-12-03T07:08:40.031Z,54.89
2022-12-03T07:09:39.957Z,52.00
2022-12-03T07:10:39.943Z,51.72
2022-12-03T07:11:39.959Z,52.60
2022-12-03T07:12:39.948Z,53.25
2022-12-03T07:13:39.935Z,51.76
2022-12-03T07:14:39.933Z,53.78
2022-12-03T07:15:39.916Z,53.25
2022-12-03T07:16:40.187Z,53.70
2022-12-03T07:17:39.897Z,56.85
2022-12-03T07:18:39.891Z,53.49
2022-12-03T07:19:39.997Z,52.64
2022-12-03T07:20:39.866Z,52.99
2022-12-03T07:21:39.886Z,54.81
2022-12-03T07:22:40.001Z,56.59
2022-12-03T07:23:39.856Z,55.97
2022-12-03T07:24:39.859Z,54.10
2022-12-03T07:25:39.853Z,54.46
2022-12-03T07:26:39.836Z,53.67
2022-12-03T07:27:39.848Z,53.98
2022-12-03T07:28:39.822Z,54.18
2022-12-03T07:29:39.878Z,55.40
2022-12-03T07:30:39.921Z,54.35
2022-12-03T07:31:39.879Z,56.87
2022-12-03T07:32:39.783Z,56.20
2022-12-03T07:33:39.800Z,55.23
2022-12-03T07:34:39.774Z,56.73
2022-12-03T07:35:39.777Z,54.58
2022-12-03T07:36:39.763Z,52.55
2022-12-03T07:37:39.753Z,55.19
2022-12-03T07:38:39.745Z,54.77
2022-12-03T07:39:39.772Z,55.90
2022-12-03T07:40:39.737Z,55.60
2022-12-03T07:41:39.723Z,56.64
2022-12-03T07:42:39.712Z,55.10
2022-12-03T07:43:39.764Z,55.04
2022-12-03T07:44:39.704Z,55.29
2022-12-03T07:45:39.742Z,54.61
2022-12-03T07:46:39.792Z,53.45
2022-12-03T07:47:39.686Z,54.29
2022-12-03T07:48:39.742Z,54.68
2022-12-03T07:49:39.688Z,54.34
2022-12-03T07:50:39.688Z,58.01
2022-12-03T07:51:39.671Z,56.47
2022-12-03T07:52:39.644Z,57.74
2022-12-03T07:53:39.658Z,53.33
2022-12-03T07:54:39.645Z,55.05
2022-12-03T07:55:39.634Z,55.26
2022-12-03T07:56:39.619Z,54.60
2022-12-03T07:57:39.638Z,55.13
2022-12-03T07:58:39.616Z,55.46
2022-12-03T07:59:39.634Z,52.07
2022-12-03T08:00:39.724Z,53.59
2022-12-03T08:01:39.898Z,51.52
2022-12-03T08:02:39.630Z,53.88
2022-12-03T08:03:39.604Z,53.84
2022-12-03T08:04:39.569Z,53.86
2022-12-03T08:05:39.652Z,56.21
2022-12-03T08:06:39.566Z,53.65
2022-12-03T08:07:39.701Z,53.85
2022-12-03T08:08:39.553Z,54.22
2022-12-03T08:09:39.559Z,54.22
2022-12-03T08:10:39.517Z,54.49
2022-12-03T08:11:39.535Z,55.54
2022-12-03T08:12:39.518Z,55.40
2022-12-03T08:13:39.524Z,55.38
2022-12-03T08:14:39.504Z,55.78
2022-12-03T08:15:39.874Z,53.62
2022-12-03T08:16:39.548Z,54.86
2022-12-03T08:17:39.492Z,54.82
2022-12-03T08:18:39.464Z,55.78
2022-12-03T08:19:39.478Z,58.15
2022-12-03T08:20:39.450Z,55.03
2022-12-03T08:21:39.465Z,56.11
2022-12-03T08:22:39.478Z,56.48
2022-12-03T08:23:39.443Z,57.23
2022-12-03T08:24:39.472Z,57.37
2022-12-03T08:25:39.431Z,55.87
2022-12-03T08:26:39.423Z,56.55
2022-12-03T08:27:39.592Z,56.63
2022-12-03T08:28:39.420Z,55.73
2022-12-03T08:29:39.399Z,53.63
2022-12-03T08:30:39.381Z,55.83
2022-12-03T08:31:39.481Z,57.81
2022-12-03T08:32:39.387Z,56.79
2022-12-03T08:33:39.426Z,55.07
2022-12-03T08:34:39.391Z,54.97
2022-12-03T08:35:39.363Z,55.77
2022-12-03T08:36:39.396Z,55.20
2022-12-03T08:37:39.343Z,56.40
2022-12-03T08:38:39.335Z,55.04
2022-12-03T08:39:39.341Z,55.45
2022-12-03T08:40:39.312Z,53.34
2022-12-03T08:41:39.323Z,53.02
2022-12-03T08:42:39.316Z,55.35
2022-12-03T08:43:39.302Z,55.92
2022-12-03T08:44:39.290Z,55.27
2022-12-03T08:45:39.509Z,56.24
2022-12-03T08:46:39.282Z,53.27
2022-12-03T08:47:39.336Z,55.30
2022-12-03T08:48:42.781Z,53.80
2022-12-03T08:49:40.345Z,57.42
2022-12-03T08:50:39.258Z,60.24
2022-12-03T08:51:39.262Z,54.96
2022-12-03T08:52:39.229Z,54.56
2022-12-03T08:53:39.257Z,55.33
2022-12-03T08:54:39.232Z,56.21
2022-12-03T08:55:39.223Z,56.59
2022-12-03T08:56:39.239Z,55.57
2022-12-03T08:57:39.201Z,54.98
2022-12-03T08:58:39.198Z,55.71
2022-12-03T08:59:42.649Z,55.56
2022-12-03T09:00:40.237Z,55.83
2022-12-03T09:01:39.308Z,55.05
2022-12-03T09:02:39.169Z,56.13
2022-12-03T09:03:39.310Z,55.29
2022-12-03T09:04:39.301Z,53.92
2022-12-03T09:05:39.166Z,55.05
2022-12-03T09:06:39.152Z,54.85
2022-12-03T09:07:39.246Z,54.57
2022-12-03T09:08:39.143Z,54.58
2022-12-03T09:09:39.124Z,53.90
2022-12-03T09:10:39.115Z,54.08
2022-12-03T09:11:39.125Z,54.90
2022-12-03T09:12:39.111Z,54.84
2022-12-03T09:13:39.107Z,54.76
2022-12-03T09:14:39.692Z,53.35
2022-12-03T09:15:39.096Z,53.88
2022-12-03T09:16:39.209Z,54.13
2022-12-03T09:17:39.090Z,54.22
2022-12-03T09:18:39.087Z,54.60
2022-12-03T09:19:42.786Z,56.23
2022-12-03T09:20:40.070Z,56.51
2022-12-03T09:21:39.116Z,54.35
2022-12-03T09:22:39.063Z,54.50
2022-12-03T09:23:39.084Z,52.86
2022-12-03T09:24:39.021Z,53.74
2022-12-03T09:25:39.026Z,54.95
2022-12-03T09:26:39.018Z,52.98
2022-12-03T09:27:39.131Z,54.50
2022-12-03T09:28:39.007Z,53.63
2022-12-03T09:29:39.018Z,53.89
2022-12-03T09:30:39.019Z,54.64
2022-12-03T09:31:39.133Z,54.70
2022-12-03T09:32:39.059Z,53.86
2022-12-03T09:33:38.961Z,55.51
2022-12-03T09:34:39.701Z,53.38
2022-12-03T09:35:38.975Z,54.46
2022-12-03T09:36:38.944Z,54.84
2022-12-03T09:37:38.951Z,54.57
2022-12-03T09:38:41.898Z,55.10
2022-12-03T09:39:39.971Z,53.00
2022-12-03T09:40:39.213Z,51.62
2022-12-03T09:41:38.902Z,51.82
2022-12-03T09:42:38.925Z,52.19
2022-12-03T09:44:05.974Z,52.41
2022-12-03T09:44:39.971Z,52.70
2022-12-03T09:45:39.030Z,51.65
2022-12-03T09:46:38.899Z,53.18
2022-12-03T09:47:39.024Z,52.33
2022-12-03T09:48:38.915Z,51.43
2022-12-03T09:49:38.853Z,55.46
2022-12-03T09:50:38.866Z,50.87
2022-12-03T09:51:38.851Z,51.49
2022-12-03T09:52:39.089Z,52.58
2022-12-03T09:53:41.316Z,50.85
2022-12-03T09:54:42.774Z,50.90
2022-12-03T09:55:39.875Z,53.69
2022-12-03T09:56:38.809Z,53.64
2022-12-03T09:57:38.918Z,52.52
2022-12-03T09:58:38.810Z,51.62
2022-12-03T09:59:38.787Z,54.72
2022-12-03T10:00:38.794Z,55.90
2022-12-03T10:01:38.812Z,55.74
2022-12-03T10:02:38.882Z,53.36
2022-12-03T10:03:38.759Z,54.32
2022-12-03T10:04:38.845Z,57.24
2022-12-03T10:05:40.576Z,53.36
2022-12-03T10:06:45.263Z,53.95
2022-12-03T10:07:39.802Z,59.06
2022-12-03T10:08:38.734Z,53.21
2022-12-03T10:09:38.915Z,54.04
2022-12-03T10:10:38.787Z,53.96
2022-12-03T10:11:38.700Z,52.18
2022-12-03T10:12:38.712Z,52.41
2022-12-03T10:13:38.729Z,54.73
2022-12-03T10:14:38.706Z,53.52
2022-12-03T10:15:38.694Z,55.45
2022-12-03T10:16:38.739Z,52.59
2022-12-03T10:17:38.693Z,51.60
2022-12-03T10:18:41.685Z,51.90
2022-12-03T10:19:38.726Z,53.81
2022-12-03T10:20:38.631Z,53.93
2022-12-03T10:21:38.643Z,57.53
2022-12-03T10:22:38.626Z,51.99
2022-12-03T10:23:38.644Z,53.93
2022-12-03T10:24:38.647Z,52.36
2022-12-03T10:25:38.619Z,53.51
2022-12-03T10:26:38.718Z,54.17
2022-12-03T10:27:38.600Z,54.37
2022-12-03T10:28:38.627Z,54.43
2022-12-03T10:29:38.579Z,55.94
2022-12-03T10:30:38.685Z,52.99
2022-12-03T10:31:38.585Z,55.17
2022-12-03T10:32:38.588Z,55.21
2022-12-03T10:33:38.566Z,55.67
2022-12-03T10:34:38.580Z,56.04
2022-12-03T10:35:38.539Z,57.75
2022-12-03T10:36:38.536Z,53.65
2022-12-03T10:37:38.549Z,54.80
2022-12-03T10:38:38.518Z,55.39
2022-12-03T10:39:38.560Z,56.95
2022-12-03T10:40:38.497Z,54.67
2022-12-03T10:41:38.497Z,56.29
2022-12-03T10:42:38.495Z,53.63
2022-12-03T10:43:38.561Z,53.60
2022-12-03T10:44:38.490Z,53.54
2022-12-03T10:45:38.487Z,54.68
2022-12-03T10:46:38.705Z,52.98
2022-12-03T10:47:38.604Z,52.05
2022-12-03T10:48:38.774Z,51.37
2022-12-03T10:49:38.456Z,53.12
2022-12-03T10:50:38.445Z,53.87
2022-12-03T10:51:38.638Z,53.98
2022-12-03T10:52:38.422Z,53.94
2022-12-03T10:53:38.433Z,55.27
2022-12-03T10:54:38.419Z,52.40
2022-12-03T10:55:38.424Z,53.28
2022-12-03T10:56:38.567Z,52.72
2022-12-03T10:57:43.733Z,52.85
2022-12-03T10:58:39.415Z,53.09
2022-12-03T10:59:38.473Z,53.59
2022-12-03T11:00:38.358Z,53.10
2022-12-03T11:01:38.537Z,52.93
2022-12-03T11:02:38.379Z,51.83
2022-12-03T11:03:38.461Z,51.83
2022-12-03T11:04:38.380Z,50.75
2022-12-03T11:05:38.338Z,50.17
2022-12-03T11:06:38.322Z,51.02
2022-12-03T11:07:38.415Z,53.16
2022-12-03T11:08:38.735Z,52.03
2022-12-03T11:09:38.319Z,50.12
2022-12-03T11:10:38.313Z,51.21
2022-12-03T11:11:38.353Z,51.46
2022-12-03T11:12:39.181Z,53.15
2022-12-03T11:13:38.729Z,51.36
2022-12-03T11:14:38.267Z,51.57
2022-12-03T11:15:38.334Z,52.20
2022-12-03T11:16:38.265Z,51.49
2022-12-03T11:17:38.254Z,52.35
2022-12-03T11:18:38.228Z,51.84
2022-12-03T11:19:38.248Z,51.77
2022-12-03T11:20:38.217Z,52.91
2022-12-03T11:21:38.626Z,52.85
2022-12-03T11:22:38.220Z,52.48
2022-12-03T11:23:38.197Z,51.90
2022-12-03T11:24:38.261Z,50.77
2022-12-03T11:25:38.200Z,51.42
2022-12-03T11:26:38.196Z,50.89
2022-12-03T11:27:38.207Z,50.93
2022-12-03T11:28:38.168Z,50.63
2022-12-03T11:29:38.169Z,53.24
2022-12-03T11:30:38.776Z,51.63
2022-12-03T11:31:38.321Z,50.97
2022-12-03T11:32:38.193Z,50.99
2022-12-03T11:33:38.709Z,52.09
2022-12-03T11:34:38.144Z,53.34
2022-12-03T11:35:38.153Z,53.61
2022-12-03T11:37:00.860Z,52.67
2022-12-03T11:37:39.180Z,52.67
2022-12-03T11:38:38.172Z,52.46
2022-12-03T11:39:38.127Z,55.15
2022-12-03T11:40:39.834Z,52.92
2022-12-03T11:41:38.130Z,51.21
2022-12-03T11:42:38.098Z,53.25
2022-12-03T11:43:38.113Z,52.06
2022-12-03T11:44:38.072Z,52.95
2022-12-03T11:45:38.074Z,51.74
2022-12-03T11:46:38.179Z,52.41
2022-12-03T11:47:38.049Z,51.66
2022-12-03T11:48:38.016Z,57.25
2022-12-03T11:49:38.016Z,56.78
2022-12-03T11:50:40.355Z,52.41
2022-12-03T11:51:38.005Z,51.03
2022-12-03T11:52:38.011Z,49.86
2022-12-03T11:53:38.012Z,48.46
2022-12-03T11:54:38.008Z,49.20
2022-12-03T11:55:38.000Z,51.00
2022-12-03T11:56:38.002Z,51.92
2022-12-03T11:57:37.976Z,54.88
2022-12-03T11:58:37.960Z,54.29
2022-12-03T11:59:37.995Z,52.35
2022-12-03T12:00:38.016Z,53.40
2022-12-03T12:01:39.165Z,53.28
2022-12-03T12:02:37.994Z,52.19
2022-12-03T12:03:38.017Z,51.36
2022-12-03T12:04:38.108Z,53.98
2022-12-03T12:05:37.938Z,51.98
2022-12-03T12:06:37.916Z,52.06
2022-12-03T12:07:37.995Z,53.20
2022-12-03T12:08:37.901Z,53.66
2022-12-03T12:09:37.880Z,53.69
2022-12-03T12:10:37.895Z,51.25
2022-12-03T12:11:37.962Z,51.61
2022-12-03T12:12:37.866Z,50.66
2022-12-03T12:13:37.866Z,51.84
2022-12-03T12:14:37.920Z,52.40
2022-12-03T12:15:38.106Z,52.53
2022-12-03T12:16:37.950Z,52.28
2022-12-03T12:17:37.843Z,51.51
2022-12-03T12:18:37.829Z,51.29
2022-12-03T12:19:37.901Z,50.84
2022-12-03T12:20:37.801Z,52.20
2022-12-03T12:21:37.799Z,51.83
2022-12-03T12:22:37.817Z,51.56
2022-12-03T12:23:37.793Z,51.35
2022-12-03T12:24:37.801Z,52.57
2022-12-03T12:25:37.807Z,51.26
2022-12-03T12:26:37.762Z,50.54
2022-12-03T12:27:37.777Z,50.81
2022-12-03T12:28:37.841Z,50.43
2022-12-03T12:29:37.757Z,49.09
2022-12-03T12:30:37.799Z,49.48
2022-12-03T12:31:37.905Z,49.87
2022-12-03T12:32:37.776Z,47.68
2022-12-03T12:33:37.738Z,47.21
2022-12-03T12:34:37.700Z,48.62
2022-12-03T12:35:37.774Z,49.44
2022-12-03T12:36:37.686Z,54.08
2022-12-03T12:37:37.688Z,49.20
2022-12-03T12:38:37.743Z,49.14
2022-12-03T12:39:37.706Z,49.08
2022-12-03T12:40:37.743Z,49.73
2022-12-03T12:41:37.677Z,51.86
2022-12-03T12:42:37.647Z,52.64
2022-12-03T12:43:37.650Z,48.73
2022-12-03T12:44:37.673Z,47.46
2022-12-03T12:45:37.681Z,48.61
2022-12-03T12:46:47.574Z,49.98
2022-12-03T12:47:38.727Z,51.51
2022-12-03T12:48:37.614Z,50.49
2022-12-03T12:49:37.604Z,48.55
2022-12-03T12:50:37.617Z,49.06
2022-12-03T12:51:37.593Z,47.45
2022-12-03T12:52:37.601Z,49.22